createdAt,value
2018-03-27T00:01:33.550Z,34.23
2018-03-27T00:04:01.075Z,31.80
2018-03-27T00:06:29.388Z,36.87
2018-03-27T00:08:56.959Z,38.07
2018-03-27T00:11:24.510Z,30.40
2018-03-27T00:13:52.038Z,34.20
2018-03-27T00:16:20.348Z,33.17
2018-03-27T00:18:47.865Z,26.43
2018-03-27T00:21:16.171Z,23.50
2018-03-27T00:23:43.758Z,30.37
2018-03-27T00:26:11.302Z,25.33
2018-03-27T00:28:50.693Z,36.05
2018-03-27T00:31:30.082Z,29.27
2018-03-27T00:34:09.426Z,27.05
2018-03-27T00:36:49.066Z,31.98
2018-03-27T00:39:28.461Z,28.90
2018-03-27T00:44:59.485Z,27.23
2018-03-27T00:47:27.113Z,31.73
2018-03-27T00:49:54.704Z,32.90
2018-03-27T00:52:22.246Z,28.02
2018-03-27T00:54:49.774Z,36.97
2018-03-27T00:57:18.086Z,34.35
2018-03-27T00:59:45.613Z,37.53
2018-03-27T01:02:13.928Z,28.60
2018-03-27T01:04:41.464Z,30.17
2018-03-27T01:07:08.998Z,32.85
2018-03-27T01:09:36.541Z,30.25
2018-03-27T01:12:04.174Z,30.88
2018-03-27T01:14:31.723Z,29.27
2018-03-27T01:16:59.299Z,30.15
2018-03-27T01:19:26.862Z,29.75
2018-03-27T01:21:54.413Z,29.92
2018-03-27T01:24:21.957Z,30.98
2018-03-27T01:26:49.483Z,33.05
2018-03-27T01:29:17.825Z,43.15
2018-03-27T01:31:45.356Z,35.08
2018-03-27T01:34:12.899Z,32.33
2018-03-27T01:36:41.226Z,30.88
2018-03-27T01:39:08.762Z,30.92
2018-03-27T01:41:36.282Z,35.13
2018-03-27T01:44:03.822Z,32.00
2018-03-27T01:46:31.358Z,32.05
2018-03-27T01:48:58.922Z,36.63
2018-03-27T01:51:26.442Z,37.38
2018-03-27T01:53:54.750Z,37.80
2018-03-27T01:56:22.268Z,51.55
2018-03-27T01:58:49.986Z,31.95
2018-03-27T02:01:17.503Z,36.33
2018-03-27T02:03:45.796Z,38.22
2018-03-27T02:06:13.343Z,35.00
2018-03-27T02:08:41.763Z,32.47
2018-03-27T02:11:14.922Z,36.03
2018-03-27T02:13:48.815Z,36.28
2018-03-27T02:16:22.971Z,33.80
2018-03-27T02:18:56.249Z,39.85
2018-03-27T02:21:24.151Z,27.33
2018-03-27T02:23:53.456Z,24.80
2018-03-27T02:26:20.989Z,24.15
2018-03-27T02:28:48.514Z,23.50
2018-03-27T02:31:16.053Z,28.65
2018-03-27T02:33:43.575Z,24.42
2018-03-27T02:36:11.111Z,24.85
2018-03-27T02:38:39.397Z,27.02
2018-03-27T02:41:07.703Z,32.35
2018-03-27T02:43:35.231Z,28.33
2018-03-27T02:46:03.556Z,24.92
2018-03-27T02:48:31.078Z,25.02
2018-03-27T02:50:58.616Z,25.17
2018-03-27T02:53:26.906Z,29.48
2018-03-27T02:55:55.216Z,25.95
2018-03-27T02:58:22.738Z,36.15
2018-03-27T03:00:51.037Z,34.75
2018-03-27T03:03:18.558Z,30.10
2018-03-27T03:05:46.101Z,21.98
2018-03-27T03:08:13.632Z,24.10
2018-03-27T03:10:41.174Z,28.33
2018-03-27T03:13:08.767Z,25.50
2018-03-27T03:15:36.290Z,20.42
2018-03-27T03:18:04.590Z,21.42
2018-03-27T03:20:32.159Z,23.83
2018-03-27T03:22:59.831Z,20.60
2018-03-27T03:25:27.395Z,30.10
2018-03-27T03:27:54.929Z,30.15
2018-03-27T03:30:22.461Z,32.35
2018-03-27T03:32:50.773Z,29.00
2018-03-27T03:35:18.323Z,27.17
2018-03-27T03:37:46.605Z,26.33
2018-03-27T03:40:14.121Z,30.17
2018-03-27T03:42:41.678Z,29.73
2018-03-27T03:45:09.301Z,22.50
2018-03-27T03:47:36.820Z,19.87
2018-03-27T03:50:05.143Z,30.17
2018-03-27T03:52:32.667Z,33.67
2018-03-27T03:55:00.977Z,38.25
2018-03-27T03:57:28.492Z,31.62
2018-03-27T03:59:56.111Z,30.60
2018-03-27T04:02:23.633Z,32.55
2018-03-27T04:04:52.046Z,22.15
2018-03-27T04:07:19.606Z,25.10
2018-03-27T04:09:47.163Z,27.42
2018-03-27T04:12:14.685Z,25.85
2018-03-27T04:14:43.004Z,23.48
2018-03-27T04:17:10.522Z,21.98
2018-03-27T04:19:38.829Z,25.35
2018-03-27T04:22:06.349Z,23.90
2018-03-27T04:24:33.906Z,32.88
2018-03-27T04:27:01.524Z,33.15
2018-03-27T04:29:29.041Z,30.35
2018-03-27T04:31:57.348Z,29.08
2018-03-27T04:34:24.931Z,34.75
2018-03-27T04:36:52.469Z,32.55
2018-03-27T04:39:20.048Z,27.60
2018-03-27T04:41:47.606Z,25.62
2018-03-27T04:44:15.141Z,28.52
2018-03-27T04:46:42.692Z,26.73
2018-03-27T04:49:10.974Z,34.58
2018-03-27T04:51:39.380Z,42.22
2018-03-27T04:54:06.930Z,33.05
2018-03-27T04:56:35.222Z,30.58
2018-03-27T04:59:02.740Z,32.33
2018-03-27T05:01:31.046Z,35.97
2018-03-27T05:03:58.618Z,36.53
2018-03-27T05:06:26.160Z,33.22
2018-03-27T05:08:53.682Z,40.60
2018-03-27T05:11:21.230Z,30.75
2018-03-27T05:13:48.762Z,27.55
2018-03-27T05:16:16.276Z,23.98
2018-03-27T05:18:44.576Z,29.55
2018-03-27T05:21:12.161Z,24.87
2018-03-27T05:23:40.425Z,30.77
2018-03-27T05:26:07.944Z,26.42
2018-03-27T05:28:35.485Z,23.25
2018-03-27T05:31:03.000Z,24.73
2018-03-27T05:33:30.540Z,22.73
2018-03-27T05:35:58.821Z,22.50
2018-03-27T05:38:27.138Z,20.37
2018-03-27T05:40:54.649Z,16.87
2018-03-27T05:43:22.966Z,22.85
2018-03-27T05:45:50.489Z,17.45
2018-03-27T05:48:18.792Z,31.23
2018-03-27T05:50:46.313Z,30.48
2018-03-27T05:53:14.646Z,27.15
2018-03-27T05:55:42.157Z,29.37
2018-03-27T05:58:09.673Z,21.83
2018-03-27T06:00:37.209Z,26.05
2018-03-27T06:03:04.726Z,21.33
2018-03-27T06:05:32.260Z,20.00
2018-03-27T06:07:59.785Z,23.45
2018-03-27T06:10:27.339Z,23.23
2018-03-27T06:12:54.866Z,18.90
2018-03-27T06:15:22.405Z,20.05
2018-03-27T06:17:49.925Z,19.95
2018-03-27T06:20:17.513Z,21.62
2018-03-27T06:22:45.038Z,18.35
2018-03-27T06:25:12.625Z,17.83
2018-03-27T06:27:40.197Z,16.70
2018-03-27T06:30:07.762Z,18.77
2018-03-27T06:32:35.295Z,25.52
2018-03-27T06:35:02.817Z,25.33
2018-03-27T06:37:30.362Z,22.17
2018-03-27T06:39:57.993Z,23.20
2018-03-27T06:42:25.529Z,23.03
2018-03-27T06:44:53.841Z,18.37
2018-03-27T06:47:21.397Z,19.23
2018-03-27T06:49:48.959Z,22.70
2018-03-27T06:52:16.500Z,18.90
2018-03-27T06:54:44.026Z,21.63
2018-03-27T06:57:11.564Z,15.37
2018-03-27T06:59:39.089Z,19.53
2018-03-27T07:02:06.638Z,19.43
2018-03-27T07:04:34.166Z,20.70
2018-03-27T07:07:01.808Z,18.03
2018-03-27T07:09:29.347Z,18.50
2018-03-27T07:11:56.902Z,22.00
2018-03-27T07:14:24.442Z,18.57
2018-03-27T07:16:52.883Z,19.10
2018-03-27T07:19:20.406Z,19.07
2018-03-27T07:21:47.977Z,24.30
2018-03-27T07:24:15.517Z,25.33
2018-03-27T07:26:43.039Z,21.67
2018-03-27T07:29:10.585Z,34.43
2018-03-27T07:31:38.114Z,27.60
2018-03-27T07:34:05.675Z,27.13
2018-03-27T07:36:33.191Z,24.80
2018-03-27T07:39:01.501Z,26.40
2018-03-27T07:41:29.022Z,28.83
2018-03-27T07:43:56.562Z,25.97
2018-03-27T07:46:24.102Z,23.10
2018-03-27T07:48:51.646Z,25.37
2018-03-27T07:51:19.173Z,22.17
2018-03-27T07:53:47.502Z,17.93
2018-03-27T07:56:15.021Z,22.50
2018-03-27T07:58:43.307Z,29.93
2018-03-27T08:01:11.710Z,28.37
2018-03-27T08:03:39.230Z,24.00
2018-03-27T08:06:06.770Z,20.73
2018-03-27T08:08:34.290Z,21.23
2018-03-27T08:11:01.919Z,27.57
2018-03-27T08:13:29.418Z,26.57
2018-03-27T08:15:56.953Z,35.57
2018-03-27T08:18:24.542Z,35.23
2018-03-27T08:20:52.083Z,35.00
2018-03-27T08:23:20.384Z,33.93
2018-03-27T08:25:47.900Z,32.77
2018-03-27T08:28:15.505Z,36.67
2018-03-27T08:30:43.025Z,36.27
2018-03-27T08:33:11.334Z,36.87
2018-03-27T08:35:38.851Z,41.70
2018-03-27T08:38:06.386Z,38.20
2018-03-27T08:40:33.905Z,39.00
2018-03-27T08:43:02.217Z,38.20
2018-03-27T08:45:29.747Z,41.73
2018-03-27T08:47:57.329Z,35.73
2018-03-27T08:50:24.854Z,34.00
2018-03-27T08:52:53.145Z,34.10
2018-03-27T08:55:20.686Z,35.47
2018-03-27T08:57:49.002Z,34.43
2018-03-27T09:00:16.552Z,34.80
2018-03-27T09:02:44.125Z,31.13
2018-03-27T09:05:11.669Z,31.87
2018-03-27T09:07:39.965Z,32.13
2018-03-27T09:10:07.540Z,33.17
2018-03-27T09:12:35.093Z,30.53
2018-03-27T09:15:02.629Z,29.73
2018-03-27T09:17:30.910Z,33.37
2018-03-27T09:19:59.221Z,33.63
2018-03-27T09:22:26.733Z,36.03
2018-03-27T09:24:55.053Z,32.67
2018-03-27T09:27:22.593Z,34.57
2018-03-27T09:29:50.118Z,37.97
2018-03-27T09:32:17.654Z,31.20
2018-03-27T09:34:45.247Z,29.73
2018-03-27T09:37:12.854Z,27.73
2018-03-27T09:39:40.409Z,31.87
2018-03-27T09:42:07.933Z,31.63
2018-03-27T09:44:36.222Z,22.80
2018-03-27T09:47:04.531Z,48.83
2018-03-27T09:49:32.049Z,27.63
2018-03-27T09:52:00.368Z,29.03
2018-03-27T09:54:27.889Z,43.43
2018-03-27T09:56:56.180Z,39.30
2018-03-27T09:59:23.721Z,32.50
2018-03-27T10:01:52.010Z,29.60
2018-03-27T10:04:20.318Z,31.50
2018-03-27T10:06:47.847Z,26.33
2018-03-27T10:09:16.169Z,29.20
2018-03-27T10:11:43.687Z,25.57
2018-03-27T10:14:11.999Z,30.60
2018-03-27T10:16:39.521Z,32.50
2018-03-27T10:19:07.811Z,29.03
2018-03-27T10:21:36.227Z,32.90
2018-03-27T10:24:03.749Z,30.17
2018-03-27T10:26:32.056Z,28.77
2018-03-27T10:28:59.618Z,26.67
2018-03-27T10:31:27.156Z,28.33
2018-03-27T10:33:55.459Z,21.30
2018-03-27T10:36:23.004Z,21.07
2018-03-27T10:38:50.584Z,21.27
2018-03-27T10:41:18.121Z,24.40
2018-03-27T10:43:46.402Z,27.70
2018-03-27T10:46:13.946Z,26.70
2018-03-27T10:48:42.246Z,24.50
2018-03-27T10:51:09.820Z,22.97
2018-03-27T10:53:37.382Z,23.43
2018-03-27T10:56:04.902Z,22.97
2018-03-27T10:58:33.232Z,24.30
2018-03-27T11:01:00.748Z,27.20
2018-03-27T11:03:29.050Z,23.40
2018-03-27T11:05:56.627Z,24.40
2018-03-27T11:08:24.170Z,19.27
2018-03-27T11:10:51.690Z,20.50
2018-03-27T11:13:19.232Z,19.73
2018-03-27T11:15:46.749Z,23.87
2018-03-27T11:18:14.289Z,23.67
2018-03-27T11:20:42.600Z,22.67
2018-03-27T11:23:10.169Z,22.03
2018-03-27T11:25:37.697Z,21.37
2018-03-27T11:28:06.024Z,23.87
2018-03-27T11:30:33.542Z,20.37
2018-03-27T11:33:01.126Z,18.47
2018-03-27T11:35:28.681Z,22.80
2018-03-27T11:37:56.259Z,18.10
2018-03-27T11:40:23.794Z,23.73
2018-03-27T11:42:51.311Z,18.47
2018-03-27T11:45:18.863Z,20.30
2018-03-27T11:47:47.205Z,17.17
2018-03-27T11:50:14.743Z,20.83
2018-03-27T11:52:42.334Z,16.53
2018-03-27T11:55:09.990Z,16.87
2018-03-27T11:57:37.505Z,22.00
2018-03-27T12:00:05.830Z,20.83
2018-03-27T12:02:33.362Z,18.63
2018-03-27T12:05:00.878Z,19.70
2018-03-27T12:07:28.453Z,17.50
2018-03-27T12:09:55.957Z,22.23
2018-03-27T12:12:23.526Z,20.60
2018-03-27T12:14:51.046Z,19.13
2018-03-27T12:17:19.359Z,16.00
2018-03-27T12:19:46.878Z,15.90
2018-03-27T12:22:15.198Z,15.57
2018-03-27T12:24:42.714Z,18.27
2018-03-27T12:27:10.250Z,15.73
2018-03-27T12:29:37.781Z,14.80
2018-03-27T12:32:05.344Z,16.77
2018-03-27T12:34:32.870Z,14.03
2018-03-27T12:37:01.180Z,17.07
2018-03-27T12:39:28.739Z,17.17
2018-03-27T12:41:56.266Z,14.07
2018-03-27T12:44:24.573Z,15.57
2018-03-27T12:46:52.097Z,12.27
2018-03-27T12:49:20.398Z,12.27
2018-03-27T12:51:47.918Z,17.57
2018-03-27T12:54:15.530Z,14.70
2018-03-27T12:56:43.052Z,15.60
2018-03-27T12:59:10.589Z,14.03
2018-03-27T13:01:38.114Z,11.40
2018-03-27T13:04:05.649Z,13.93
2018-03-27T13:06:33.955Z,16.63
2018-03-27T13:09:01.517Z,17.00
2018-03-27T13:11:29.034Z,14.13
2018-03-27T13:13:57.334Z,19.83
2018-03-27T13:16:24.857Z,16.23
2018-03-27T13:18:53.186Z,10.67
2018-03-27T13:21:20.750Z,12.10
2018-03-27T13:23:48.264Z,12.80
2018-03-27T13:26:16.584Z,12.07
2018-03-27T13:28:44.101Z,13.43
2018-03-27T13:31:12.406Z,16.27
2018-03-27T13:33:39.986Z,13.50
2018-03-27T13:36:07.521Z,11.30
2018-03-27T13:38:35.049Z,16.10
2018-03-27T13:41:02.581Z,13.23
2018-03-27T13:43:30.113Z,15.50
2018-03-27T13:45:57.645Z,16.90
2018-03-27T13:48:25.932Z,18.27
2018-03-27T13:50:54.280Z,11.83
2018-03-27T13:53:21.900Z,15.90
2018-03-27T13:55:49.458Z,14.40
2018-03-27T13:58:16.979Z,16.40
2018-03-27T14:00:45.270Z,20.80
2018-03-27T14:03:13.574Z,16.20
2018-03-27T14:05:41.098Z,21.23
2018-03-27T14:08:09.401Z,24.07
2018-03-27T14:10:36.973Z,21.53
2018-03-27T14:13:04.508Z,16.57
2018-03-27T14:15:32.794Z,17.43
2018-03-27T14:18:00.334Z,16.00
2018-03-27T14:20:28.636Z,19.87
2018-03-27T14:22:56.214Z,21.93
2018-03-27T14:25:23.733Z,18.50
2018-03-27T14:27:52.039Z,21.50
2018-03-27T14:30:19.623Z,24.33
2018-03-27T14:32:47.182Z,22.03
2018-03-27T14:35:14.734Z,22.97
2018-03-27T14:37:42.300Z,18.90
2018-03-27T14:40:09.859Z,23.27
2018-03-27T14:42:37.382Z,21.30
2018-03-27T14:45:05.690Z,22.00
2018-03-27T14:47:33.209Z,22.90
2018-03-27T14:50:00.751Z,24.80
2018-03-27T14:52:28.262Z,23.20
2018-03-27T14:54:55.806Z,23.13
2018-03-27T14:57:24.121Z,22.30
2018-03-27T14:59:51.662Z,17.70
2018-03-27T15:02:19.240Z,21.53
2018-03-27T15:04:46.775Z,18.20
2018-03-27T15:07:14.297Z,20.27
2018-03-27T15:09:41.838Z,19.07
2018-03-27T15:12:09.353Z,22.40
2018-03-27T15:14:37.656Z,20.27
2018-03-27T15:17:05.176Z,21.80
2018-03-27T15:19:32.722Z,16.23
2018-03-27T15:22:00.449Z,23.23
2018-03-27T15:24:27.969Z,24.30
2018-03-27T15:26:56.311Z,22.80
2018-03-27T15:29:23.809Z,28.37
2018-03-27T15:31:52.121Z,20.30
2018-03-27T15:34:19.642Z,26.93
2018-03-27T15:36:47.178Z,25.90
2018-03-27T15:39:14.694Z,21.23
2018-03-27T15:41:42.229Z,25.23
2018-03-27T15:44:10.514Z,27.77
2018-03-27T15:46:38.823Z,26.90
2018-03-27T15:49:06.338Z,29.10
2018-03-27T15:51:34.663Z,23.90
2018-03-27T15:54:02.181Z,29.53
2018-03-27T15:56:30.499Z,25.83
2018-03-27T15:58:58.066Z,25.60
2018-03-27T16:01:25.630Z,26.00
2018-03-27T16:03:53.194Z,26.30
2018-03-27T16:06:20.718Z,25.23
2018-03-27T16:08:49.022Z,25.10
2018-03-27T16:11:16.541Z,29.20
2018-03-27T16:13:44.841Z,28.40
2018-03-27T16:16:13.127Z,30.00
2018-03-27T16:18:40.663Z,31.40
2018-03-27T16:21:08.942Z,24.20
2018-03-27T16:23:37.253Z,26.90
2018-03-27T16:26:05.542Z,29.33
2018-03-27T16:28:33.090Z,27.53
2018-03-27T16:31:00.605Z,32.27
2018-03-27T16:33:28.142Z,28.00
2018-03-27T16:35:55.662Z,31.47
2018-03-27T16:38:23.982Z,26.77
2018-03-27T16:40:51.499Z,30.40
2018-03-27T16:43:19.801Z,32.00
2018-03-27T16:45:47.340Z,26.40
2018-03-27T16:48:15.642Z,22.53
2018-03-27T16:50:43.200Z,23.40
2018-03-27T16:53:10.713Z,30.00
2018-03-27T16:55:39.026Z,23.37
2018-03-27T16:58:06.537Z,27.77
2018-03-27T17:00:34.176Z,31.13
2018-03-27T17:03:01.697Z,23.87
2018-03-27T17:05:30.107Z,26.77
2018-03-27T17:07:57.627Z,23.30
2018-03-27T17:10:25.961Z,27.10
2018-03-27T17:12:53.470Z,23.47
2018-03-27T17:15:21.779Z,24.23
2018-03-27T17:17:49.349Z,22.30
2018-03-27T17:20:16.910Z,20.33
2018-03-27T17:22:46.389Z,22.13
2018-03-27T17:25:14.082Z,24.13
2018-03-27T17:27:41.601Z,22.43
2018-03-27T17:30:09.914Z,24.93
2018-03-27T17:32:37.478Z,20.47
2018-03-27T17:35:05.010Z,25.80
2018-03-27T17:37:33.314Z,22.13
2018-03-27T17:40:00.881Z,23.33
2018-03-27T17:42:28.417Z,19.43
2018-03-27T17:44:55.943Z,23.60
2018-03-27T17:47:23.485Z,27.47
2018-03-27T17:49:51.002Z,22.80
2018-03-27T17:52:18.538Z,21.17
2018-03-27T17:54:46.862Z,24.07
2018-03-27T17:57:14.401Z,21.10
2018-03-27T17:59:42.018Z,22.27
2018-03-27T18:02:09.542Z,20.57
2018-03-27T18:04:37.065Z,23.17
2018-03-27T18:07:05.370Z,24.03
2018-03-27T18:09:32.944Z,20.77
2018-03-27T18:12:00.505Z,22.80
2018-03-27T18:14:28.048Z,22.33
2018-03-27T18:16:55.626Z,20.27
2018-03-27T18:19:23.170Z,16.97
2018-03-27T18:21:50.754Z,14.27
2018-03-27T18:24:18.294Z,13.40
2018-03-27T18:26:45.825Z,15.80
2018-03-27T18:29:13.366Z,19.13
2018-03-27T18:31:40.885Z,16.50
2018-03-27T18:34:08.422Z,16.00
2018-03-27T18:36:36.710Z,14.57
2018-03-27T18:39:05.018Z,19.03
2018-03-27T18:41:32.536Z,19.37
2018-03-27T18:44:00.838Z,23.60
2018-03-27T18:46:28.357Z,20.50
2018-03-27T18:48:55.897Z,19.63
2018-03-27T18:51:23.439Z,29.43
2018-03-27T18:53:51.005Z,27.50
2018-03-27T18:56:18.524Z,19.27
2018-03-27T18:58:46.837Z,21.07
2018-03-27T19:01:14.358Z,19.40
2018-03-27T19:03:42.668Z,18.87
2018-03-27T19:06:11.008Z,25.53
2018-03-27T19:08:38.519Z,16.17
2018-03-27T19:11:06.082Z,24.47
2018-03-27T19:13:33.629Z,29.63
2018-03-27T19:16:01.154Z,31.90
2018-03-27T19:18:28.697Z,27.40
2018-03-27T19:20:56.218Z,30.83
2018-03-27T19:23:23.781Z,42.47
2018-03-27T19:25:51.301Z,28.70
2018-03-27T19:28:19.622Z,27.93
2018-03-27T19:30:47.147Z,32.90
2018-03-27T19:33:15.437Z,32.40
2018-03-27T19:35:42.977Z,32.20
2018-03-27T19:38:11.266Z,31.63
2018-03-27T19:40:39.569Z,30.87
2018-03-27T19:43:07.089Z,32.90
2018-03-27T19:45:35.393Z,33.20
2018-03-27T19:48:02.913Z,32.00
2018-03-27T19:50:30.465Z,41.50
2018-03-27T19:52:58.089Z,28.93
2018-03-27T19:55:25.653Z,34.83
2018-03-27T19:57:53.171Z,30.73
2018-03-27T20:00:20.777Z,34.40
2018-03-27T20:02:48.293Z,35.10
2018-03-27T20:05:16.593Z,36.37
2018-03-27T20:07:44.169Z,33.10
2018-03-27T20:10:11.717Z,37.13
2018-03-27T20:12:39.289Z,36.43
2018-03-27T20:15:06.851Z,40.40
2018-03-27T20:17:34.386Z,36.93
2018-03-27T20:20:02.671Z,36.30
2018-03-27T20:22:30.204Z,44.20
2018-03-27T20:24:58.527Z,46.90
2018-03-27T20:27:26.086Z,36.03
2018-03-27T20:29:53.605Z,37.43
2018-03-27T20:32:21.925Z,43.23
2018-03-27T20:34:49.486Z,39.77
2018-03-27T20:37:17.039Z,41.33
2018-03-27T20:39:44.609Z,36.57
2018-03-27T20:42:12.170Z,42.03
2018-03-27T20:44:39.689Z,38.33
2018-03-27T20:47:07.993Z,37.70
2018-03-27T20:49:35.569Z,35.97
2018-03-27T20:52:03.111Z,42.07
2018-03-27T20:54:30.687Z,37.73
2018-03-27T20:56:58.238Z,32.17
2018-03-27T20:59:25.768Z,37.43
2018-03-27T21:01:54.057Z,34.87
2018-03-27T21:04:22.476Z,41.97
2018-03-27T21:06:50.002Z,41.43
2018-03-27T21:09:18.307Z,45.97
2018-03-27T21:11:45.824Z,49.10
2018-03-27T21:14:14.132Z,40.57
2018-03-27T21:16:41.651Z,45.70
2018-03-27T21:19:09.268Z,44.80
2018-03-27T21:21:36.787Z,41.43
2018-03-27T21:24:05.093Z,40.00
2018-03-27T21:26:32.612Z,46.17
2018-03-27T21:29:00.155Z,43.80
2018-03-27T21:31:27.671Z,42.37
2018-03-27T21:33:55.219Z,48.07
2018-03-27T21:36:22.806Z,41.70
2018-03-27T21:38:50.323Z,41.83
2018-03-27T21:41:18.631Z,40.03
2018-03-27T21:43:46.143Z,35.50
2018-03-27T21:46:13.761Z,37.73
2018-03-27T21:48:41.318Z,32.30
2018-03-27T21:51:08.886Z,40.30
2018-03-27T21:53:36.445Z,48.47
2018-03-27T21:56:03.981Z,40.87
2018-03-27T21:58:31.496Z,54.97
2018-03-27T22:00:59.033Z,41.07
2018-03-27T22:03:32.525Z,38.13
2018-03-27T22:06:00.061Z,35.97
2018-03-27T22:08:27.582Z,38.27
2018-03-27T22:10:55.120Z,37.03
2018-03-27T22:13:22.650Z,41.10
2018-03-27T22:15:50.186Z,38.47
2018-03-27T22:18:18.503Z,37.27
2018-03-27T22:20:46.048Z,50.77
2018-03-27T22:23:13.623Z,46.53
2018-03-27T22:25:41.185Z,45.10
2018-03-27T22:28:08.757Z,40.10
2018-03-27T22:30:36.256Z,52.70
2018-03-27T22:33:03.797Z,48.87
2018-03-27T22:35:31.321Z,54.50
2018-03-27T22:37:58.853Z,35.97
2018-03-27T22:40:27.138Z,40.50
2018-03-27T22:42:54.684Z,43.97
2018-03-27T22:45:23.002Z,45.57
2018-03-27T22:47:50.564Z,40.57
2018-03-27T22:50:18.086Z,38.03
2018-03-27T22:52:46.401Z,43.40
2018-03-27T22:55:13.924Z,47.37
2018-03-27T22:57:42.209Z,38.00
2018-03-27T23:00:10.622Z,42.47
2018-03-27T23:02:38.146Z,43.97
2018-03-27T23:05:06.466Z,39.70
2018-03-27T23:07:34.124Z,38.73
2018-03-27T23:10:01.662Z,40.40
2018-03-27T23:12:29.182Z,37.40
2018-03-27T23:14:56.805Z,38.83
2018-03-27T23:17:24.330Z,38.20
2018-03-27T23:19:52.642Z,38.37
2018-03-27T23:22:31.110Z,30.47
2018-03-27T23:24:58.719Z,32.33
2018-03-27T23:27:26.281Z,32.60
2018-03-27T23:29:53.838Z,38.43
2018-03-27T23:32:21.415Z,32.60
2018-03-27T23:34:48.944Z,36.20
2018-03-27T23:37:16.527Z,31.27
2018-03-27T23:39:44.048Z,32.80
2018-03-27T23:42:12.358Z,34.80
2018-03-27T23:44:39.878Z,39.40
2018-03-27T23:47:07.461Z,34.47
2018-03-27T23:49:35.056Z,29.60
2018-03-27T23:52:02.594Z,32.57
2018-03-27T23:54:30.118Z,33.97
2018-03-27T23:56:57.663Z,32.93
2018-03-27T23:59:25.182Z,33.03
